LFMH/EBU METAR and TAF weather

Enter ICAO airport designator
Station Type Date Time Source
LFMH METAR 2019/06/27 10:00 UTC NOAA

LFMH 271000Z AUTO 19004KT 130V280 CAVOK 33/15 Q1022 NOSIG


Station Type Date Time Source
LFMH Decoded METAR 2019/06/27 10:00 UTC NOAA

St-Etienne Boutheon, France (LFMH) 45-32N 004-18E 402M
Jun 27, 2019 - 06:00 AM EDT / 2019.06.27 1000 UTC
Wind: from the S (190 degrees) at 5 MPH (4 KT) (direction variable):0
Visibility: greater than 7 mile(s):0
Temperature: 91 F (33 C)
Dew Point: 59 F (15 C)
Relative Humidity: 33%
Pressure (altimeter): 30.18 in. Hg (1022 hPa)
ob: LFMH 271000Z AUTO 19004KT 130V280 CAVOK 33/15 Q1022 NOSIG
cycle: 10

Station Type Date Time Source
LFMH TAF 2019/06/27 09:25 UTC NOAA

TAF LFMH 270800Z 2709/2809 VRB03KT CAVOK

Example: see airport list